Portland, OR (97233)

10:21 AM PST on December 06, 2016 (GMT -0800)
Red's House | | Change Station

Elev 256 ft 45.51 °N, 122.51 °W | Updated 44 seconds ago

Scattered Clouds
Scattered Clouds
38.7 °F
Feels Like 39 °F
N
0.0
Wind Variable Wind from NE
Gusts 0.0 mph

Today
High -- | Low -- °F
--% Chance of Precip.
Yesterday
High -- | Low -- °F
Precip. -- in
Pressure 30.12 in
Visibility 10.0 miles
Clouds Scattered Clouds 4900 ft
Windchill 39 °F
Dew Point 37 °F
Humidity 93%
Rainfall 0.02 in
Snow Depth Not available.
7:35 AM 4:26 PM
Waxing Crescent, 44% visible
METAR KTTD 061753Z 00000KT 10SM SCT049 05/01 A3011 RMK AO2 SLP197 60000 T00500011 10050 20039 53017
Pressure 30.12 in
Visibility 10.0 miles
Clouds Scattered Clouds 4900 ft
Windchill 39 °F
Dew Point 37 °F
Humidity 93%
Rainfall 0.02 in
Snow Depth Not available.
7:35 AM 4:26 PM
Waxing Crescent, 44% visible
METAR KTTD 061753Z 00000KT 10SM SCT049 05/01 A3011 RMK AO2 SLP197 60000 T00500011 10050 20039 53017

10-Day Weather Forecast

Almanac

Astronomy

Dec. 06, 2016 Rise Set
Actual Time
Civil Twilight
Nautical Twilight
Astronomical Twilight
Moon
Length of Visible Light
Length of Day
Tomorrow will be .
, % of the Moon is Illuminated

Today's Extremes

State Highs State Lows

Community

WunderPhotos

Upload Photos

1,955,999 photos uploaded!

WunderBlog® & News

Nearby

Air Quality

  Air Quality AQ Index Pollutant
Not available.

Snow Depth

Station Depth Elevation

Earthquake Activity

City Distance Mag. Time & Date
Minimum magnitude displayed is 2.5.

Coastal Water Temperatures

Place Temperature

Stations

Nearby Weather Stations

Station Location Temp. Windchill Dew Point Humidity Wind Precip. Elev Updated Type
                   

Watches & Warnings

There are currently no watches in effect.